Time;durP1;ratioP1;P1;durP2;ratioP2;P2;SDS_P1;SDS_P2;PMS_P1;PMS_P2;Temp;Humidity;BMP_temperature;BMP_pressure;BME280_temperature;BME280_humidity;BME280_pressure;Samples;Min_cycle;Max_cycle;Signal;HPM_P1;HPM_P2
2023/09/08 00:01:50;;;;;;;5.25;4.30;;;21.40;99.90;;;;;;5035794;28;20167;-33
2023/09/08 00:04:15;;;;;;;5.47;4.00;;;21.30;99.90;;;;;;5037161;28;20056;-33
2023/09/08 00:06:41;;;;;;;5.95;4.47;;;21.40;99.90;;;;;;5039259;28;20040;-33
2023/09/08 00:09:07;;;;;;;7.55;4.75;;;21.30;99.90;;;;;;5037997;28;20118;-33
2023/09/08 00:11:33;;;;;;;5.93;4.97;;;21.30;99.90;;;;;;5045015;28;20041;-33
2023/09/08 00:13:59;;;;;;;7.28;4.43;;;21.20;99.90;;;;;;5043351;28;20036;-34
2023/09/08 00:16:25;;;;;;;8.02;4.80;;;21.20;99.90;;;;;;5028694;28;20095;-34
2023/09/08 00:18:50;;;;;;;6.18;4.22;;;21.20;99.90;;;;;;5037900;28;20441;-34
2023/09/08 00:21:16;;;;;;;6.20;4.28;;;21.20;99.90;;;;;;5045043;28;20045;-34
2023/09/08 00:23:42;;;;;;;9.30;5.28;;;21.20;99.90;;;;;;5054842;28;20470;-33
2023/09/08 00:26:07;;;;;;;6.45;4.78;;;21.10;99.90;;;;;;5044230;28;20494;-34
2023/09/08 00:28:33;;;;;;;6.63;4.78;;;21.10;99.90;;;;;;5038982;28;22237;-34
2023/09/08 00:31:01;;;;;;;7.32;5.00;;;21.10;99.90;;;;;;5034673;28;20048;-33
2023/09/08 00:33:27;;;;;;;5.97;4.65;;;21.00;99.90;;;;;;5042275;28;20044;-34
2023/09/08 00:35:53;;;;;;;6.03;4.45;;;21.00;99.90;;;;;;5039925;28;20532;-34
2023/09/08 00:38:19;;;;;;;6.63;4.50;;;20.90;99.90;;;;;;5043633;28;20039;-34
2023/09/08 00:40:45;;;;;;;7.88;5.30;;;20.90;99.90;;;;;;5047144;28;20041;-34
2023/09/08 00:43:11;;;;;;;6.70;5.32;;;20.80;99.90;;;;;;5045608;28;20044;-34
2023/09/08 00:45:40;;;;;;;6.78;5.38;;;20.80;99.90;;;;;;5044750;28;20033;-34
2023/09/08 00:48:06;;;;;;;5.88;5.05;;;20.70;99.90;;;;;;5045775;28;20041;-34
2023/09/08 00:50:33;;;;;;;9.55;6.10;;;20.70;99.90;;;;;;5044387;28;20043;-34
2023/09/08 00:52:58;;;;;;;7.30;4.93;;;20.60;99.90;;;;;;5044736;28;20881;-34
2023/09/08 00:55:25;;;;;;;6.30;5.38;;;20.60;99.90;;;;;;5046407;28;20140;-34
2023/09/08 00:57:50;;;;;;;8.43;5.57;;;20.50;99.90;;;;;;5046389;28;20483;-33
2023/09/08 01:00:16;;;;;;;8.55;5.70;;;20.50;99.90;;;;;;5041103;28;20126;-34
2023/09/08 01:02:43;;;;;;;6.32;5.40;;;20.50;99.90;;;;;;5035744;28;21229;-33
2023/09/08 01:05:08;;;;;;;8.30;5.07;;;20.40;99.90;;;;;;5035848;28;20045;-34
2023/09/08 01:07:35;;;;;;;7.35;5.60;;;20.40;99.90;;;;;;5033802;28;20082;-34
2023/09/08 01:10:06;;;;;;;7.82;5.20;;;20.30;99.90;;;;;;5038532;28;20041;-33
2023/09/08 01:12:33;;;;;;;9.02;5.45;;;20.30;99.90;;;;;;5036978;28;20076;-34
2023/09/08 01:14:58;;;;;;;7.57;5.55;;;20.20;99.90;;;;;;5032890;28;20053;-34
2023/09/08 01:17:25;;;;;;;7.63;5.32;;;20.20;99.90;;;;;;5033068;28;20053;-34
2023/09/08 01:19:55;;;;;;;8.02;4.90;;;20.20;99.90;;;;;;5037179;28;20098;-34
2023/09/08 01:22:44;;;;;;;7.10;5.22;;;20.20;99.90;;;;;;5039240;28;20551;-34
2023/09/08 01:25:17;;;;;;;6.28;5.35;;;20.10;99.90;;;;;;5036758;28;21795;-34
2023/09/08 01:27:49;;;;;;;8.20;5.20;;;20.10;99.90;;;;;;5037500;28;20037;-34
2023/09/08 01:30:15;;;;;;;;;;;20.00;99.90;;;;;;5040011;28;20047;-34
2023/09/08 01:32:41;;;;;;;7.82;5.72;;;20.00;99.90;;;;;;5041997;28;19924;-34
2023/09/08 01:35:07;;;;;;;9.30;5.60;;;19.90;99.90;;;;;;5038565;28;20064;-34
2023/09/08 01:37:33;;;;;;;8.68;5.38;;;19.90;99.90;;;;;;5044072;28;20720;-34
2023/09/08 01:39:59;;;;;;;6.80;5.68;;;19.80;99.90;;;;;;5027535;28;20083;-34
2023/09/08 01:42:24;;;;;;;7.35;5.00;;;19.80;99.90;;;;;;5045803;28;20032;-34
2023/09/08 01:44:50;;;;;;;7.15;5.82;;;19.80;99.90;;;;;;5048642;28;20550;-34
2023/09/08 01:47:16;;;;;;;9.75;5.85;;;19.80;99.90;;;;;;5044531;28;20032;-34
2023/09/08 01:49:42;;;;;;;6.97;5.38;;;19.70;99.90;;;;;;5043750;28;20116;-33
2023/09/08 01:52:07;;;;;;;7.40;5.47;;;19.70;99.90;;;;;;5042086;28;20044;-34
2023/09/08 01:54:33;;;;;;;7.53;5.80;;;19.70;99.90;;;;;;5036298;28;20137;-34
2023/09/08 01:56:59;;;;;;;7.32;5.63;;;19.60;99.90;;;;;;5037941;28;20029;-34
2023/09/08 01:59:24;;;;;;;8.25;5.85;;;19.60;99.90;;;;;;5041382;28;20032;-34
2023/09/08 02:01:50;;;;;;;9.48;5.80;;;19.60;99.90;;;;;;5039020;28;20409;-33
2023/09/08 02:04:15;;;;;;;7.63;5.35;;;19.50;99.90;;;;;;5048783;28;20506;-33
2023/09/08 02:06:41;;;;;;;7.57;6.03;;;19.50;99.90;;;;;;5041907;28;22013;-34
2023/09/08 02:09:09;;;;;;;11.23;6.53;;;19.50;99.90;;;;;;5039214;28;20125;-34
2023/09/08 02:11:35;;;;;;;7.68;5.50;;;19.50;99.90;;;;;;5044946;28;20041;-33
2023/09/08 02:14:01;;;;;;;8.95;5.80;;;19.40;99.90;;;;;;5045557;28;20496;-34
2023/09/08 02:16:26;;;;;;;7.90;5.72;;;19.40;99.90;;;;;;5045753;28;21925;-34
2023/09/08 02:18:52;;;;;;;9.18;5.90;;;19.40;99.90;;;;;;5049401;28;20060;-34
2023/09/08 02:21:17;;;;;;;7.75;5.88;;;19.30;99.90;;;;;;5045068;28;20152;-34
2023/09/08 02:23:43;;;;;;;7.40;5.97;;;19.30;99.90;;;;;;5048835;28;20422;-35
2023/09/08 02:26:09;;;;;;;8.57;5.75;;;19.30;99.90;;;;;;5044099;28;20532;-33
2023/09/08 02:28:34;;;;;;;7.93;5.72;;;19.30;99.90;;;;;;5045884;28;20037;-34
2023/09/08 02:31:00;;;;;;;11.93;5.25;;;19.30;99.90;;;;;;5045368;28;20043;-34
2023/09/08 02:33:25;;;;;;;7.15;5.63;;;19.30;99.90;;;;;;5043637;28;20075;-34
2023/09/08 02:35:51;;;;;;;7.55;5.25;;;19.20;99.90;;;;;;5046972;28;20073;-34
2023/09/08 02:38:17;;;;;;;8.73;5.95;;;19.20;99.90;;;;;;5045536;28;20041;-34
2023/09/08 02:40:43;;;;;;;6.28;4.80;;;19.20;99.90;;;;;;5047099;28;20041;-34
2023/09/08 02:43:09;;;;;;;8.32;5.47;;;19.20;99.90;;;;;;5048534;28;20045;-34
2023/09/08 02:45:34;;;;;;;7.03;5.13;;;19.20;99.90;;;;;;5048862;28;20037;-33
2023/09/08 02:48:00;;;;;;;5.95;4.97;;;19.10;99.90;;;;;;5043775;28;20075;-34
2023/09/08 02:50:25;;;;;;;9.68;5.80;;;19.20;99.90;;;;;;5048049;28;20455;-34
2023/09/08 02:52:52;;;;;;;5.90;4.57;;;19.10;99.90;;;;;;5030733;28;20047;-33
2023/09/08 02:55:17;;;;;;;6.75;4.93;;;19.10;99.90;;;;;;5044879;28;20048;-34
2023/09/08 02:57:43;;;;;;;9.13;5.47;;;19.10;99.90;;;;;;5045889;28;20033;-34
2023/09/08 03:00:09;;;;;;;8.25;5.70;;;19.00;99.90;;;;;;5044513;28;20124;-33
2023/09/08 03:02:35;;;;;;;11.65;5.70;;;19.10;99.90;;;;;;5040462;28;20041;-34
2023/09/08 03:05:01;;;;;;;7.35;5.53;;;19.00;99.90;;;;;;5039336;28;20060;-34
2023/09/08 03:07:27;;;;;;;9.07;5.90;;;19.00;99.90;;;;;;5041265;28;20040;-33
2023/09/08 03:09:53;;;;;;;7.20;5.30;;;19.00;99.90;;;;;;5039953;28;20028;-33
2023/09/08 03:12:19;;;;;;;7.80;5.30;;;19.00;99.90;;;;;;5022921;28;20047;-33
2023/09/08 03:14:45;;;;;;;8.45;5.32;;;18.90;99.90;;;;;;5039768;28;20418;-34
2023/09/08 03:17:12;;;;;;;7.30;5.65;;;18.90;99.90;;;;;;5038763;28;20487;-34
2023/09/08 03:19:38;;;;;;;9.65;6.13;;;18.90;99.90;;;;;;5042875;28;20128;-34
2023/09/08 03:22:04;;;;;;;6.85;5.40;;;18.80;99.90;;;;;;5039922;28;20037;-34
2023/09/08 03:24:30;;;;;;;9.48;5.57;;;18.80;99.90;;;;;;5042106;28;20082;-33
2023/09/08 03:26:57;;;;;;;7.65;5.75;;;18.80;99.90;;;;;;5040682;28;20044;-33
2023/09/08 03:29:23;;;;;;;7.05;5.65;;;18.80;99.90;;;;;;5039596;28;20410;-34
2023/09/08 03:31:49;;;;;;;12.13;6.10;;;18.80;99.90;;;;;;5042688;28;20048;-33
2023/09/08 03:34:15;;;;;;;9.65;5.97;;;18.70;99.90;;;;;;5045020;28;20036;-33
2023/09/08 03:36:40;;;;;;;8.77;6.38;;;18.70;99.90;;;;;;5042052;28;20560;-33
2023/09/08 03:39:06;;;;;;;8.00;5.72;;;18.70;99.90;;;;;;5044090;28;20421;-33
2023/09/08 03:41:32;;;;;;;9.70;5.95;;;18.60;99.90;;;;;;5043603;28;20505;-33
2023/09/08 03:43:57;;;;;;;10.75;5.88;;;18.60;99.90;;;;;;5048614;28;20051;-33
2023/09/08 03:46:25;;;;;;;8.65;5.53;;;18.50;99.90;;;;;;5040999;28;20040;-33
2023/09/08 03:48:50;;;;;;;8.05;5.85;;;18.50;99.90;;;;;;5042108;28;20045;-33
2023/09/08 03:51:16;;;;;;;8.88;6.00;;;18.50;99.90;;;;;;5038812;28;20048;-34
2023/09/08 03:53:42;;;;;;;9.88;6.38;;;18.50;99.90;;;;;;5047762;28;20045;-34
2023/09/08 03:56:07;;;;;;;8.85;6.13;;;18.50;99.90;;;;;;5045506;28;20441;-34
2023/09/08 03:58:33;;;;;;;10.27;6.75;;;18.50;99.90;;;;;;5044069;28;20037;-34
2023/09/08 04:00:59;;;;;;;9.88;6.35;;;18.50;99.90;;;;;;5043618;28;20048;-34
2023/09/08 04:03:24;;;;;;;8.70;6.13;;;18.40;99.90;;;;;;5042095;28;20041;-33
2023/09/08 04:05:50;;;;;;;11.38;6.57;;;18.40;99.90;;;;;;5044304;28;20051;-33
2023/09/08 04:08:16;;;;;;;9.70;6.20;;;18.40;99.90;;;;;;5038908;28;20036;-34
2023/09/08 04:10:41;;;;;;;7.32;5.63;;;18.40;99.90;;;;;;5043902;28;20048;-33
2023/09/08 04:13:07;;;;;;;8.10;5.43;;;18.40;99.90;;;;;;5044794;28;20049;-33
2023/09/08 04:15:33;;;;;;;7.70;5.82;;;18.30;99.90;;;;;;5046067;28;20518;-34
2023/09/08 04:17:58;;;;;;;7.25;5.70;;;18.30;99.90;;;;;;5046880;28;20057;-33
2023/09/08 04:20:24;;;;;;;8.68;6.30;;;18.30;99.90;;;;;;5042163;28;20077;-33
2023/09/08 04:22:50;;;;;;;7.30;5.97;;;18.30;99.90;;;;;;5051026;28;20117;-33
2023/09/08 04:25:16;;;;;;;10.45;6.80;;;18.30;99.90;;;;;;5042057;28;20977;-33
2023/09/08 04:27:41;;;;;;;9.00;6.13;;;18.30;99.90;;;;;;5045070;28;20114;-33
2023/09/08 04:30:07;;;;;;;11.48;7.05;;;18.20;99.90;;;;;;5044314;28;20517;-33
2023/09/08 04:32:33;;;;;;;8.30;5.82;;;18.20;99.90;;;;;;5046256;28;20041;-34
2023/09/08 04:34:59;;;;;;;10.05;6.30;;;18.20;99.90;;;;;;5028430;28;20113;-34
2023/09/08 04:37:24;;;;;;;7.60;5.80;;;18.20;99.90;;;;;;5022563;28;20379;-33
2023/09/08 04:39:50;;;;;;;8.77;6.30;;;18.20;99.90;;;;;;5047377;28;20044;-33
2023/09/08 04:42:16;;;;;;;6.97;5.50;;;18.10;99.90;;;;;;5044234;28;20128;-33
2023/09/08 04:44:41;;;;;;;8.50;6.47;;;18.10;99.90;;;;;;5029549;28;20037;-33
2023/09/08 04:47:08;;;;;;;9.82;6.50;;;18.10;99.90;;;;;;5041045;28;20055;-33
2023/09/08 04:49:34;;;;;;;8.88;6.55;;;18.10;99.90;;;;;;5023650;28;20110;-33
2023/09/08 04:51:59;;;;;;;8.68;6.45;;;18.10;99.90;;;;;;5046986;28;20136;-33
2023/09/08 04:54:27;;;;;;;10.10;6.22;;;18.00;99.90;;;;;;5046113;28;20136;-34
2023/09/08 04:56:53;;;;;;;10.65;7.18;;;18.00;99.90;;;;;;5048118;28;22184;-33
2023/09/08 04:59:19;;;;;;;8.45;6.35;;;18.00;99.90;;;;;;5045998;28;20119;-33
2023/09/08 05:01:45;;;;;;;9.07;6.55;;;18.00;99.90;;;;;;5039475;28;20051;-33
2023/09/08 05:04:11;;;;;;;10.77;6.07;;;18.00;99.90;;;;;;5041345;28;20107;-34
2023/09/08 05:06:37;;;;;;;9.98;6.20;;;18.00;99.90;;;;;;5040709;28;20045;-35
2023/09/08 05:09:03;;;;;;;11.10;6.70;;;18.00;99.90;;;;;;5042297;28;20387;-33
2023/09/08 05:11:28;;;;;;;8.82;6.13;;;18.00;99.90;;;;;;5042685;28;20044;-33
2023/09/08 05:13:54;;;;;;;7.50;6.35;;;18.00;99.90;;;;;;5043657;28;20060;-33
2023/09/08 05:16:35;;;;;;;10.20;6.53;;;18.00;99.90;;;;;;5041604;28;20037;-33
2023/09/08 05:19:01;;;;;;;10.13;6.40;;;18.00;99.90;;;;;;5038847;28;20080;-33
2023/09/08 05:21:27;;;;;;;8.65;6.95;;;18.00;99.90;;;;;;5044625;28;20076;-33
2023/09/08 05:23:53;;;;;;;10.32;6.78;;;18.10;99.90;;;;;;5047939;28;20063;-33
2023/09/08 05:26:18;;;;;;;8.05;5.40;;;18.10;99.90;;;;;;5048796;28;20036;-33
2023/09/08 05:28:44;;;;;;;9.52;6.47;;;18.00;99.90;;;;;;5038631;28;20036;-34
2023/09/08 05:31:09;;;;;;;9.48;6.30;;;18.10;99.90;;;;;;5037300;28;20508;-34
2023/09/08 05:33:35;;;;;;;7.22;5.65;;;18.10;99.90;;;;;;5043865;28;20045;-35
2023/09/08 05:36:01;;;;;;;8.32;6.43;;;18.10;99.90;;;;;;5043446;28;20522;-34
2023/09/08 05:38:28;;;;;;;8.40;6.10;;;18.10;99.90;;;;;;5045798;28;20435;-35
2023/09/08 05:40:53;;;;;;;9.30;5.55;;;18.10;99.90;;;;;;5041519;28;20073;-34
2023/09/08 05:43:19;;;;;;;7.50;5.80;;;18.10;99.90;;;;;;5041514;28;20517;-34
2023/09/08 05:45:44;;;;;;;8.60;5.68;;;18.10;99.90;;;;;;5043560;28;20037;-34
2023/09/08 05:48:10;;;;;;;8.45;6.03;;;18.20;99.90;;;;;;5040309;28;20043;-35
2023/09/08 05:50:36;;;;;;;7.93;6.47;;;18.20;99.90;;;;;;5042375;28;20037;-34
2023/09/08 05:53:02;;;;;;;6.78;5.50;;;18.20;99.90;;;;;;5045153;28;20156;-33
2023/09/08 05:55:28;;;;;;;9.75;6.40;;;18.20;99.90;;;;;;5043423;28;20136;-33
2023/09/08 05:57:53;;;;;;;9.05;6.70;;;18.20;99.90;;;;;;5041623;28;20552;-33
2023/09/08 06:00:19;;;;;;;9.77;6.43;;;18.20;99.90;;;;;;5040883;28;20049;-34
2023/09/08 06:02:45;;;;;;;8.98;5.85;;;18.30;99.90;;;;;;5045063;28;20059;-35
2023/09/08 06:05:11;;;;;;;8.20;5.97;;;18.30;99.90;;;;;;5047171;28;20025;-34
2023/09/08 06:07:36;;;;;;;8.40;6.85;;;18.30;99.90;;;;;;5043016;28;20086;-35
2023/09/08 06:10:03;;;;;;;8.88;6.35;;;18.40;99.90;;;;;;5042069;28;20033;-34
2023/09/08 06:12:29;;;;;;;8.45;6.50;;;18.40;99.90;;;;;;5039890;28;20037;-34
2023/09/08 06:14:54;;;;;;;10.32;6.22;;;18.50;99.90;;;;;;5035981;28;20036;-34
2023/09/08 06:17:20;;;;;;;8.85;6.65;;;18.50;99.90;;;;;;5037772;28;20052;-35
2023/09/08 06:19:45;;;;;;;8.77;6.40;;;18.50;99.90;;;;;;5043811;28;20057;-35
2023/09/08 06:22:11;;;;;;;5.97;5.22;;;18.60;99.90;;;;;;5038979;28;20494;-35
2023/09/08 06:24:37;;;;;;;9.00;6.70;;;18.60;99.90;;;;;;5022170;28;20033;-34
2023/09/08 06:27:03;;;;;;;10.15;6.40;;;18.70;99.90;;;;;;5036512;28;20041;-34
2023/09/08 06:29:28;;;;;;;9.45;6.75;;;18.70;99.90;;;;;;5046310;28;20037;-34
2023/09/08 06:31:54;;;;;;;8.48;6.13;;;18.80;99.90;;;;;;5039413;28;20430;-34
2023/09/08 06:34:22;;;;;;;9.00;6.03;;;18.80;99.90;;;;;;5035400;28;20119;-34
2023/09/08 06:36:48;;;;;;;7.20;5.60;;;18.90;99.90;;;;;;5040113;28;20044;-34
2023/09/08 06:39:14;;;;;;;7.93;5.40;;;18.90;99.90;;;;;;5037240;28;20494;-34
2023/09/08 06:41:40;;;;;;;7.13;5.53;;;19.00;99.90;;;;;;5038783;28;20044;-34
2023/09/08 06:44:05;;;;;;;9.00;5.70;;;19.00;99.90;;;;;;5045980;28;20037;-34
2023/09/08 06:46:31;;;;;;;8.02;5.80;;;19.10;99.90;;;;;;5041936;28;20035;-34
2023/09/08 06:48:57;;;;;;;7.57;6.30;;;19.20;99.90;;;;;;5045023;28;20060;-34
2023/09/08 06:51:23;;;;;;;9.30;6.47;;;19.30;99.90;;;;;;5040412;28;20524;-34
2023/09/08 06:54:00;;;;;;;7.40;6.00;;;19.30;99.90;;;;;;5038405;28;20049;-34
2023/09/08 06:56:25;;;;;;;7.53;5.95;;;19.40;99.90;;;;;;5042065;28;20131;-34
2023/09/08 06:58:51;;;;;;;9.60;6.18;;;19.40;99.90;;;;;;5045134;28;20041;-34
2023/09/08 07:01:17;;;;;;;10.18;6.13;;;19.50;99.90;;;;;;5030968;28;20048;-34
2023/09/08 07:03:43;;;;;;;10.63;6.25;;;19.50;99.90;;;;;;5037311;28;20040;-34
2023/09/08 07:06:09;;;;;;;7.15;5.60;;;19.60;99.90;;;;;;5035055;28;20049;-34
2023/09/08 07:08:34;;;;;;;9.95;6.13;;;19.70;99.90;;;;;;5039064;28;20064;-34
2023/09/08 07:11:00;;;;;;;7.03;5.47;;;19.70;99.90;;;;;;5035419;28;20071;-34
2023/09/08 07:13:26;;;;;;;9.93;6.10;;;19.80;99.90;;;;;;5017697;28;20041;-34
2023/09/08 07:15:51;;;;;;;7.80;5.72;;;19.80;99.90;;;;;;5035932;28;20037;-34
2023/09/08 07:18:17;;;;;;;8.27;5.90;;;19.90;99.90;;;;;;5035941;28;20055;-34
2023/09/08 07:20:49;;;;;;;8.50;5.78;;;19.90;99.90;;;;;;5015616;28;20045;-35
2023/09/08 07:23:18;;;;;;;9.05;6.22;;;20.00;99.90;;;;;;5038570;28;20037;-34
2023/09/08 07:25:48;;;;;;;6.43;4.90;;;20.10;99.90;;;;;;5041982;28;20163;-34
2023/09/08 07:28:14;;;;;;;10.48;6.35;;;20.20;99.90;;;;;;5039758;28;20655;-34
2023/09/08 07:30:40;;;;;;;8.05;5.60;;;20.30;99.90;;;;;;5039555;28;20544;-34
2023/09/08 07:33:05;;;;;;;7.35;5.85;;;20.30;99.90;;;;;;5037580;28;20037;-34
2023/09/08 07:35:31;;;;;;;12.57;5.70;;;20.40;99.90;;;;;;5041343;28;20052;-34
2023/09/08 07:37:57;;;;;;;10.00;5.93;;;20.50;99.90;;;;;;5038454;28;20032;-34
2023/09/08 07:40:23;;;;;;;8.35;6.40;;;20.60;99.90;;;;;;5039666;28;20029;-39
2023/09/08 07:42:49;;;;;;;7.35;5.38;;;20.60;99.90;;;;;;5034505;28;20041;-34
2023/09/08 07:45:14;;;;;;;6.88;5.22;;;20.70;99.90;;;;;;5034477;28;20093;-34
2023/09/08 07:47:40;;;;;;;7.03;5.28;;;20.80;99.90;;;;;;5040007;28;20032;-34
2023/09/08 07:50:20;;;;;;;6.15;4.75;;;20.90;99.90;;;;;;5040938;28;20168;-34
2023/09/08 07:52:46;;;;;;;9.23;5.88;;;20.90;99.90;;;;;;5041007;28;20037;-34
2023/09/08 07:55:12;;;;;;;9.35;6.30;;;21.00;99.90;;;;;;5042333;28;20032;-34
2023/09/08 07:57:37;;;;;;;10.63;6.05;;;21.10;99.90;;;;;;5047396;28;20037;-34
2023/09/08 08:00:04;;;;;;;8.77;5.68;;;21.20;99.90;;;;;;5045049;28;20110;-34
2023/09/08 08:02:31;;;;;;;11.05;5.65;;;21.30;99.90;;;;;;5038054;28;20049;-34
2023/09/08 08:04:57;;;;;;;7.25;5.50;;;21.40;99.90;;;;;;5035670;28;20043;-34
2023/09/08 08:07:22;;;;;;;8.23;5.03;;;21.50;99.90;;;;;;5025914;28;20037;-34
2023/09/08 08:09:48;;;;;;;8.00;5.28;;;21.60;99.90;;;;;;5042245;28;20076;-34
2023/09/08 08:12:14;;;;;;;7.25;4.82;;;21.70;99.90;;;;;;5045670;28;20112;-34
2023/09/08 08:14:39;;;;;;;9.50;5.10;;;21.80;99.90;;;;;;5044379;28;20514;-35
2023/09/08 08:17:05;;;;;;;10.15;4.38;;;21.90;99.90;;;;;;5039415;28;20514;-34
2023/09/08 08:19:31;;;;;;;8.85;5.28;;;22.00;99.90;;;;;;5038080;28;20460;-34
2023/09/08 08:21:57;;;;;;;6.28;4.55;;;22.10;99.90;;;;;;5034310;28;20037;-34
2023/09/08 08:24:23;;;;;;;8.55;5.90;;;22.30;99.90;;;;;;5041812;28;20413;-34
2023/09/08 08:26:51;;;;;;;10.05;5.00;;;22.40;99.90;;;;;;5041788;28;20033;-34
2023/09/08 08:29:17;;;;;;;5.80;4.60;;;22.50;99.90;;;;;;5046600;28;20040;-34
2023/09/08 08:31:43;;;;;;;7.30;5.30;;;22.60;99.90;;;;;;5044462;28;20402;-35
2023/09/08 08:34:09;;;;;;;6.35;4.35;;;22.70;99.90;;;;;;5041477;28;20103;-34
2023/09/08 08:36:35;;;;;;;6.22;4.75;;;22.80;99.90;;;;;;5041795;28;20064;-34
2023/09/08 08:39:00;;;;;;;8.50;4.70;;;23.00;99.90;;;;;;5040871;28;20189;-35
2023/09/08 08:41:26;;;;;;;7.00;4.38;;;23.10;99.90;;;;;;5038058;28;20684;-34
2023/09/08 08:43:54;;;;;;;7.22;4.47;;;23.10;99.90;;;;;;5039847;28;20034;-34
2023/09/08 08:46:23;;;;;;;6.13;4.70;;;23.20;99.90;;;;;;5043623;28;20584;-35
2023/09/08 08:48:54;;;;;;;6.22;4.30;;;23.30;99.90;;;;;;5043342;28;20226;-35
2023/09/08 08:51:22;;;;;;;7.97;4.90;;;23.40;99.90;;;;;;5041335;28;20048;-34
2023/09/08 08:53:48;;;;;;;7.53;5.47;;;23.50;99.90;;;;;;5044373;28;20049;-34
2023/09/08 08:56:15;;;;;;;9.65;5.18;;;23.60;99.90;;;;;;5043991;28;20039;-35
2023/09/08 08:58:41;;;;;;;6.75;4.00;;;23.70;99.90;;;;;;5040695;28;20056;-35
2023/09/08 09:01:09;;;;;;;7.65;4.78;;;23.80;99.90;;;;;;5040353;28;20048;-34
2023/09/08 09:03:37;;;;;;;7.65;4.90;;;23.90;99.90;;;;;;5042741;28;20052;-35
2023/09/08 09:06:03;;;;;;;7.25;4.00;;;24.00;99.90;;;;;;5040500;28;20033;-34
2023/09/08 09:08:30;;;;;;;5.88;4.45;;;24.10;99.90;;;;;;5041545;28;20498;-35
2023/09/08 09:10:56;;;;;;;6.30;4.63;;;24.20;99.90;;;;;;5042447;28;20041;-34
2023/09/08 09:13:21;;;;;;;6.88;4.53;;;24.20;99.90;;;;;;5041113;28;20060;-34
2023/09/08 09:15:49;;;;;;;8.75;4.70;;;24.40;99.90;;;;;;5040508;28;20486;-34
2023/09/08 09:18:15;;;;;;;7.10;4.88;;;24.40;99.90;;;;;;5041996;28;20076;-34
2023/09/08 09:20:52;;;;;;;6.75;4.75;;;24.50;99.90;;;;;;5040311;28;20832;-34
2023/09/08 09:23:28;;;;;;;7.15;3.85;;;24.60;99.90;;;;;;5041688;28;20508;-35
2023/09/08 09:25:53;;;;;;;5.57;4.32;;;24.70;99.90;;;;;;5039361;28;20041;-34
2023/09/08 09:28:19;;;;;;;6.53;4.30;;;24.80;99.90;;;;;;5042420;28;20041;-35
2023/09/08 09:30:50;;;;;;;5.93;4.45;;;24.90;99.90;;;;;;5040638;28;20056;-34
2023/09/08 09:33:17;;;;;;;6.35;5.00;;;25.00;99.90;;;;;;5039200;28;20697;-34
2023/09/08 09:35:52;;;;;;;6.10;4.43;;;25.00;99.90;;;;;;5040652;28;20067;-35
2023/09/08 09:38:18;;;;;;;8.30;5.28;;;25.10;99.90;;;;;;5043869;28;20033;-35
2023/09/08 09:40:45;;;;;;;7.93;4.53;;;25.20;99.90;;;;;;5044521;28;20534;-35
2023/09/08 09:43:13;;;;;;;6.85;4.50;;;25.30;99.90;;;;;;5041741;28;20379;-35
2023/09/08 09:45:40;;;;;;;5.70;4.30;;;25.40;99.90;;;;;;5029771;28;20037;-34
2023/09/08 09:48:07;;;;;;;7.15;4.85;;;25.50;99.90;;;;;;5041575;28;20043;-35
2023/09/08 09:50:35;;;;;;;7.45;5.18;;;25.60;99.90;;;;;;5044499;28;20064;-35
2023/09/08 09:53:07;;;;;;;5.88;4.57;;;25.70;99.90;;;;;;5048356;28;20110;-34
2023/09/08 09:55:35;;;;;;;6.45;4.68;;;25.80;99.90;;;;;;5041581;28;20403;-35
2023/09/08 09:58:03;;;;;;;6.68;4.15;;;25.80;99.90;;;;;;5048303;28;20040;-35
2023/09/08 10:00:30;;;;;;;5.30;3.88;;;25.90;99.90;;;;;;5049529;28;20037;-35
2023/09/08 10:02:56;;;;;;;10.27;4.68;;;26.00;99.90;;;;;;5044399;28;22151;-35
2023/09/08 10:05:25;;;;;;;6.15;4.28;;;26.20;99.90;;;;;;5039470;28;20037;-35
2023/09/08 10:07:52;;;;;;;5.63;4.47;;;26.30;99.90;;;;;;5044623;28;20045;-35
2023/09/08 10:10:18;;;;;;;6.90;4.57;;;26.40;99.90;;;;;;5040835;28;20097;-34
2023/09/08 10:12:46;;;;;;;7.25;4.05;;;26.40;99.90;;;;;;5044652;28;20040;-33
2023/09/08 10:15:13;;;;;;;7.55;4.43;;;26.50;99.90;;;;;;5039414;28;20072;-33
2023/09/08 10:17:42;;;;;;;6.97;4.57;;;26.50;99.90;;;;;;5037596;28;20052;-34
2023/09/08 10:20:11;;;;;;;6.65;4.38;;;26.50;99.90;;;;;;5043963;28;20056;-34
2023/09/08 10:22:42;;;;;;;6.15;4.30;;;26.50;99.90;;;;;;5039218;28;20318;-34
2023/09/08 10:25:11;;;;;;;8.90;4.43;;;26.40;99.90;;;;;;5027374;28;20090;-33
2023/09/08 10:27:37;;;;;;;7.30;4.35;;;26.50;99.90;;;;;;5038222;28;20048;-33
2023/09/08 10:30:06;;;;;;;6.50;4.63;;;26.50;99.90;;;;;;5040450;28;20033;-40
2023/09/08 10:32:33;;;;;;;6.95;4.47;;;26.60;99.90;;;;;;5047309;28;20048;-34
2023/09/08 10:35:00;;;;;;;7.18;4.30;;;26.60;99.90;;;;;;5040192;28;20048;-35
2023/09/08 10:37:29;;;;;;;6.45;4.60;;;26.70;99.90;;;;;;5044575;28;20043;-34
2023/09/08 10:40:22;;;;;;;5.63;4.40;;;26.80;99.90;;;;;;5045924;28;20498;-34
2023/09/08 10:42:49;;;;;;;6.68;4.10;;;26.80;99.90;;;;;;5019354;28;20541;-34
2023/09/08 10:45:20;;;;;;;5.93;3.90;;;26.90;99.90;;;;;;5039325;28;20052;-34
2023/09/08 10:47:45;;;;;;;6.27;3.70;;;27.00;99.90;;;;;;5037890;28;20059;-34
2023/09/08 10:50:18;;;;;;;4.95;3.72;;;27.00;99.90;;;;;;5035635;28;20045;-34
2023/09/08 10:52:45;;;;;;;6.85;3.67;;;27.20;99.90;;;;;;5035658;28;20079;-34
2023/09/08 10:55:15;;;;;;;5.85;3.65;;;27.30;99.90;;;;;;5034726;28;20064;-33
2023/09/08 10:57:45;;;;;;;5.15;3.60;;;27.30;99.90;;;;;;5039698;28;20055;-34
2023/09/08 11:00:17;;;;;;;5.35;3.90;;;27.40;99.90;;;;;;5039519;28;20049;-34
2023/09/08 11:02:54;;;;;;;6.35;3.45;;;27.40;99.90;;;;;;5037221;28;20033;-33
2023/09/08 11:05:21;;;;;;;5.95;3.70;;;27.40;99.90;;;;;;5038280;28;20135;-34
2023/09/08 11:07:49;;;;;;;8.05;3.97;;;27.50;99.90;;;;;;5036978;28;20157;-34
2023/09/08 11:10:15;;;;;;;11.75;3.90;;;27.60;99.90;;;;;;5037928;28;20406;-34
2023/09/08 11:12:41;;;;;;;6.03;3.85;;;27.60;99.90;;;;;;5039289;28;20163;-34
2023/09/08 11:15:08;;;;;;;8.50;4.00;;;27.70;99.90;;;;;;5021683;28;20055;-34
2023/09/08 11:17:39;;;;;;;4.97;3.97;;;27.70;99.90;;;;;;5039740;28;20049;-34
2023/09/08 11:20:10;;;;;;;6.00;3.70;;;27.70;99.90;;;;;;5039657;28;20060;-35
2023/09/08 11:22:40;;;;;;;5.47;3.35;;;27.80;99.90;;;;;;5034585;28;20087;-35
2023/09/08 11:25:08;;;;;;;7.78;3.90;;;27.90;99.90;;;;;;5036237;28;20510;-35
2023/09/08 11:27:34;;;;;;;7.28;4.10;;;28.00;99.90;;;;;;5034438;28;20037;-34
2023/09/08 11:30:00;;;;;;;8.45;4.18;;;28.00;99.90;;;;;;5029280;28;20068;-34
2023/09/08 11:32:32;;;;;;;8.45;3.78;;;28.10;99.90;;;;;;5038072;28;20087;-34
2023/09/08 11:35:09;;;;;;;9.50;4.00;;;28.20;99.90;;;;;;5043390;28;20082;-34
2023/09/08 11:37:38;;;;;;;6.80;4.05;;;28.30;99.90;;;;;;5039097;28;20033;-35
2023/09/08 11:40:09;;;;;;;6.85;3.60;;;28.30;99.90;;;;;;5039426;28;20053;-35
2023/09/08 11:42:35;;;;;;;5.77;3.73;;;28.40;99.90;;;;;;5039742;28;20037;-34
2023/09/08 11:45:03;;;;;;;6.75;3.95;;;28.40;99.90;;;;;;5042168;28;20307;-34
2023/09/08 11:47:29;;;;;;;7.35;3.47;;;28.40;99.90;;;;;;5046358;28;20068;-34
2023/09/08 11:49:57;;;;;;;5.03;3.88;;;28.40;99.90;;;;;;5047818;28;20036;-34
2023/09/08 11:52:25;;;;;;;5.68;3.47;;;28.50;99.90;;;;;;5045502;28;20061;-34
2023/09/08 11:54:52;;;;;;;4.90;3.25;;;28.50;99.90;;;;;;5047147;28;20055;-34
2023/09/08 11:57:18;;;;;;;4.65;3.33;;;28.60;99.90;;;;;;5048761;28;20048;-34
2023/09/08 11:59:47;;;;;;;8.13;4.53;;;28.70;99.90;;;;;;5037905;28;20040;-34
2023/09/08 12:02:14;;;;;;;6.22;3.53;;;28.80;99.90;;;;;;5046582;28;20033;-34
2023/09/08 12:04:41;;;;;;;8.55;3.83;;;28.80;99.90;;;;;;5045788;28;20048;-34
2023/09/08 12:07:15;;;;;;;5.63;3.50;;;28.80;99.90;;;;;;5048112;28;20536;-34
2023/09/08 12:09:41;;;;;;;6.53;3.83;;;28.80;99.90;;;;;;5043953;28;20116;-34
2023/09/08 12:12:12;;;;;;;6.55;4.18;;;28.90;99.90;;;;;;5045399;28;20041;-34
2023/09/08 12:14:42;;;;;;;6.07;4.20;;;29.00;99.90;;;;;;5044990;28;20447;-34
2023/09/08 12:17:08;;;;;;;6.65;3.50;;;29.10;99.90;;;;;;5048700;28;20041;-34
2023/09/08 12:19:37;;;;;;;5.68;3.72;;;29.20;99.90;;;;;;5048251;28;20045;-34
2023/09/08 12:22:04;;;;;;;11.35;4.55;;;29.30;99.90;;;;;;5047770;28;20033;-34
2023/09/08 12:24:54;;;;;;;9.00;3.80;;;29.40;99.90;;;;;;5043210;28;20045;-34
2023/09/08 12:27:19;;;;;;;4.55;3.55;;;29.40;99.90;;;;;;5040268;28;20068;-34
2023/09/08 12:30:00;;;;;;;5.00;3.60;;;29.50;99.90;;;;;;5041407;28;20455;-34
2023/09/08 12:32:28;;;;;;;7.10;4.47;;;29.50;99.90;;;;;;5049808;28;20506;-34
2023/09/08 12:34:54;;;;;;;8.93;4.07;;;29.50;99.90;;;;;;5047149;28;20518;-34
2023/09/08 12:37:24;;;;;;;6.80;4.40;;;29.60;99.90;;;;;;5045826;28;20122;-34
2023/09/08 12:39:50;;;;;;;8.75;3.63;;;29.70;99.90;;;;;;5043476;28;20112;-34
2023/09/08 12:42:17;;;;;;;6.53;3.72;;;29.80;99.90;;;;;;5047908;28;20458;-34
2023/09/08 12:44:43;;;;;;;4.63;3.25;;;29.90;99.90;;;;;;5047470;28;20059;-34